Fort Abbas Weather



Fort Abbas's Current Weather

Temprature 24.98o clear sky

clear sky

Rain: 0 %

Min Temprature24.98o
Max Temprature24.98o
Humidity18
Wind Speed3.51 m/h
Sun Rise06:18:27
Sun Set17:26:05
Current Time: 28-Oct-2020 08:03:48
Lat/Lon: 29.19, 72.85




Fort Abbas's Geo Location



Fort Abbas's Weather Forecast

Time Overall Temp Min Temp Max Temp Humidity Wind Speed Rain
28-Oct-2020 (Wed)
11:00:00 clear sky 28.310 28.310 31.800 15 3.89 m/h 0 %
14:00:00 clear sky 31.610 31.610 33.440 11 2.47 m/h 0 %
17:00:00 clear sky 28.180 28.180 28.400 15 1.11 m/h 0 %
20:00:00 clear sky 25.920 25.920 25.930 16 2.83 m/h 0 %
23:00:00 clear sky 25.290 25.290 25.290 17 3.65 m/h 0 %
29-Oct-2020 (Thu)
02:00:00 clear sky 23.050 23.050 23.050 19 3.05 m/h 0 %
05:00:00 clear sky 21.340 21.340 21.340 21 2.64 m/h 0 %
08:00:00 clear sky 25.620 25.620 25.620 16 2.76 m/h 0 %
11:00:00 clear sky 31.360 31.360 31.360 12 2.74 m/h 0 %
14:00:00 clear sky 33.430 33.430 33.430 11 2.63 m/h 0 %
17:00:00 clear sky 29.030 29.030 29.030 15 1.24 m/h 0 %
20:00:00 clear sky 26.620 26.620 26.620 17 2.91 m/h 0 %
23:00:00 clear sky 24.860 24.860 24.860 18 2.5 m/h 0 %
30-Oct-2020 (Fri)
02:00:00 clear sky 21.500 21.500 21.500 22 1.06 m/h 0 %
05:00:00 clear sky 22.440 22.440 22.440 21 3.44 m/h 0 %
08:00:00 clear sky 24.180 24.180 24.180 19 3.23 m/h 0 %
11:00:00 clear sky 31.000 31.000 31.000 13 1.13 m/h 0 %
14:00:00 clear sky 33.810 33.810 33.810 11 3.25 m/h 0 %
17:00:00 clear sky 30.040 30.040 30.040 13 2.45 m/h 0 %
20:00:00 clear sky 26.330 26.330 26.330 16 3.16 m/h 0 %
23:00:00 clear sky 22.040 22.040 22.040 21 1.87 m/h 0 %
31-Oct-2020 (Sat)
02:00:00 clear sky 19.970 19.970 19.970 23 1.39 m/h 0 %
05:00:00 clear sky 20.320 20.320 20.320 23 3.34 m/h 0 %
08:00:00 clear sky 22.890 22.890 22.890 20 3.26 m/h 0 %
11:00:00 clear sky 30.820 30.820 30.820 12 1.65 m/h 0 %
14:00:00 clear sky 33.410 33.410 33.410 10 3.22 m/h 0 %
17:00:00 clear sky 28.980 28.980 28.980 14 2.21 m/h 0 %
20:00:00 clear sky 23.460 23.460 23.460 19 1.18 m/h 0 %
23:00:00 clear sky 22.020 22.020 22.020 21 1.43 m/h 0 %
01-Nov-2020 (Sun)
02:00:00 clear sky 19.920 19.920 19.920 24 0.68 m/h 0 %
05:00:00 clear sky 19.310 19.310 19.310 24 1.74 m/h 0 %
08:00:00 clear sky 25.610 25.610 25.610 16 1.5 m/h 0 %
11:00:00 clear sky 31.630 31.630 31.630 12 3.31 m/h 0 %
14:00:00 clear sky 33.820 33.820 33.820 10 4.55 m/h 0 %
17:00:00 clear sky 28.150 28.150 28.150 14 1.92 m/h 0 %
20:00:00 clear sky 24.720 24.720 24.720 16 2.73 m/h 0 %
23:00:00 clear sky 21.670 21.670 21.670 20 1.68 m/h 0 %
02-Nov-2020 (Mon)
02:00:00 clear sky 19.020 19.020 19.020 22 1.39 m/h 0 %
05:00:00 clear sky 17.920 17.920 17.920 24 1.5 m/h 0 %
08:00:00 clear sky 24.130 24.130 24.130 17 1.89 m/h 0 %

Famous Cities (60)